Time;durP1;ratioP1;P1;durP2;ratioP2;P2;SDS_P1;SDS_P2;PMS_P1;PMS_P2;Temp;Humidity;BMP_temperature;BMP_pressure;BME280_temperature;BME280_humidity;BME280_pressure;Samples;Min_cycle;Max_cycle;Signal;HPM_P1;HPM_P2
2023/01/04 00:01:21;;;;;;;6.43;2.80;;;9.10;99.90;;;;;;5074722;28;20545;-65
2023/01/04 00:03:47;;;;;;;9.98;3.03;;;;;;;;;;5106797;28;20078;-64
2023/01/04 00:06:14;;;;;;;10.43;2.80;;;;;;;;;;5073961;28;20075;-64
2023/01/04 00:08:40;;;;;;;8.60;2.50;;;;;;;;;;5077049;28;20515;-65
2023/01/04 00:11:08;;;;;;;11.70;2.90;;;;;;;;;;5103095;28;20043;-65
2023/01/04 00:13:34;;;;;;;9.55;2.83;;;;;;;;;;5106238;28;20866;-65
2023/01/04 00:16:04;;;;;;;7.35;2.17;;;;;;;;;;5073502;28;20036;-65
2023/01/04 00:18:30;;;;;;;8.00;2.42;;;;;;;;;;5074215;28;20052;-64
2023/01/04 00:21:06;;;;;;;9.98;3.67;;;;;;;;;;5057292;28;20040;-63
2023/01/04 00:23:32;;;;;;;5.95;2.22;;;;;;;;;;5074080;28;20040;-64
2023/01/04 00:25:58;;;;;;;7.63;2.80;;;;;;;;;;5092165;28;20048;-63
2023/01/04 00:28:24;;;;;;;5.03;2.58;;;;;;;;;;5069576;28;20194;-64
2023/01/04 00:30:50;;;;;;;8.05;2.90;;;;;;;;;;5076339;28;20046;-64
2023/01/04 00:33:34;;;;;;;8.85;2.55;;;;;;;;;;5104116;28;20054;-64
2023/01/04 00:36:13;;;;;;;8.02;3.15;;;;;;;;;;5080948;28;20402;-64
2023/01/04 00:38:40;;;;;;;7.07;2.90;;;9.10;99.90;;;;;;5074693;28;20462;-64
2023/01/04 00:41:07;;;;;;;5.95;2.78;;;8.90;99.90;;;;;;5097848;28;20302;-64
2023/01/04 00:43:33;;;;;;;10.07;3.17;;;;;;;;;;5073376;28;20051;-63
2023/01/04 00:46:00;;;;;;;9.82;4.18;;;;;;;;;;5074526;28;20430;-64
2023/01/04 00:48:26;;;;;;;10.02;3.08;;;;;;;;;;5088400;28;20117;-64
2023/01/04 00:50:52;;;;;;;9.43;3.53;;;;;;;;;;5085275;28;20042;-65
2023/01/04 00:53:18;;;;;;;9.60;3.35;;;;;;;;;;5077028;28;20616;-64
2023/01/04 00:55:45;;;;;;;14.48;4.18;;;;;;;;;;5091829;28;20052;-64
2023/01/04 00:58:11;;;;;;;10.75;3.58;;;;;;;;;;5072551;28;20040;-64
2023/01/04 01:00:38;;;;;;;8.20;3.38;;;8.70;99.90;;;;;;5073269;28;20097;-64
2023/01/04 01:03:04;;;;;;;6.72;2.80;;;;;;;;;;5073966;28;20448;-63
2023/01/04 01:05:30;;;;;;;7.78;3.72;;;;;;;;;;5088347;28;20052;-64
2023/01/04 01:07:56;;;;;;;6.55;2.90;;;;;;;;;;5091559;28;20040;-64
2023/01/04 01:10:22;;;;;;;10.57;3.78;;;;;;;;;;5088022;28;20079;-63
2023/01/04 01:12:48;;;;;;;8.90;3.45;;;;;;;;;;5073593;28;20082;-65
2023/01/04 01:15:14;;;;;;;7.82;3.88;;;;;;;;;;5073536;28;20047;-64
2023/01/04 01:17:40;;;;;;;9.43;3.80;;;;;;;;;;5090964;28;20087;-63
2023/01/04 01:20:07;;;;;;;6.78;3.40;;;;;;;;;;5072463;28;20050;-64
2023/01/04 01:22:35;;;;;;;5.28;3.38;;;;;;;;;;5090814;28;20405;-64
2023/01/04 01:25:01;;;;;;;8.43;3.42;;;;;;;;;;5090891;28;20051;-63
2023/01/04 01:27:27;;;;;;;9.98;3.72;;;;;;;;;;5076811;28;20451;-64
2023/01/04 01:29:53;;;;;;;8.77;5.00;;;;;;;;;;5100148;28;20047;-64
2023/01/04 01:32:19;;;;;;;8.60;3.50;;;;;;;;;;5049929;28;20061;-63
2023/01/04 01:34:45;;;;;;;6.18;3.30;;;;;;;;;;5081473;28;20051;-63
2023/01/04 01:37:11;;;;;;;15.05;4.88;;;;;;;;;;5072492;28;20054;-64
2023/01/04 01:39:37;;;;;;;12.85;5.32;;;;;;;;;;5090607;28;20048;-64
2023/01/04 01:42:03;;;;;;;8.32;3.67;;;8.60;99.90;;;;;;5071824;28;20036;-64
2023/01/04 01:44:41;;;;;;;8.05;3.53;;;;;;;;;;5090127;28;20120;-64
2023/01/04 01:47:33;;;;;;;6.00;3.90;;;;;;;;;;5089870;28;20040;-63
2023/01/04 01:50:00;;;;;;;9.32;3.92;;;;;;;;;;5080475;28;20052;-64
2023/01/04 01:52:31;;;;;;;7.45;3.47;;;;;;;;;;5071887;28;20059;-64
2023/01/04 01:54:59;;;;;;;5.30;3.45;;;;;;;;;;5072420;28;20051;-63
2023/01/04 01:57:28;;;;;;;7.00;3.50;;;;;;;;;;5071509;28;20365;-64
2023/01/04 01:59:56;;;;;;;6.72;2.92;;;;;;;;;;5089902;28;20506;-64
2023/01/04 02:02:22;;;;;;;9.65;3.40;;;;;;;;;;5071303;28;20104;-63
2023/01/04 02:04:50;;;;;;;4.47;2.78;;;;;;;;;;5089794;28;20036;-63
2023/01/04 02:07:18;;;;;;;4.90;2.63;;;;;;;;;;5070961;28;20043;-63
2023/01/04 02:09:45;;;;;;;4.45;2.85;;;;;;;;;;5070054;28;20097;-63
2023/01/04 02:12:12;;;;;;;4.72;2.70;;;;;;;;;;5089253;28;20050;-62
2023/01/04 02:14:38;;;;;;;4.72;3.17;;;;;;;;;;5089149;28;20455;-63
2023/01/04 02:17:07;;;;;;;7.00;3.28;;;;;;;;;;5070859;28;20132;-63
2023/01/04 02:19:44;;;;;;;3.17;2.80;;;;;;;;;;5088962;28;20040;-64
2023/01/04 02:22:13;;;;;;;4.80;2.58;;;;;;;;;;5071151;28;20036;-64
2023/01/04 02:24:42;;;;;;;3.50;2.75;;;;;;;;;;5071597;28;20032;-64
2023/01/04 02:27:11;;;;;;;2.90;2.10;;;;;;;;;;5054374;28;20043;-63
2023/01/04 02:29:37;;;;;;;4.35;2.60;;;;;;;;;;5082783;28;20047;-63
2023/01/04 02:32:18;;;;;;;7.03;2.90;;;;;;;;;;5095245;27;20389;-64
2023/01/04 02:34:54;;;;;;;4.28;2.50;;;;;;;;;;5086355;28;20050;-64
2023/01/04 02:37:27;;;;;;;;;;;8.90;99.90;;;;;;5067884;28;20129;-65
2023/01/04 02:40:03;;;;;;;4.70;2.33;;;;;;;;;;5085767;28;19920;-64
2023/01/04 02:45:19;;;;;;;6.03;2.90;;;;;;;;;;5067271;28;20048;-64
2023/01/04 02:50:34;;;;;;;4.75;3.03;;;;;;;;;;5053728;28;20052;-64
2023/01/04 02:53:09;;;;;;;5.53;2.90;;;;;;;;;;5085068;28;20463;-64
2023/01/04 02:55:51;;;;;;;3.58;2.85;;;;;;;;;;5066784;28;20498;-65
2023/01/04 02:58:20;;;;;;;3.55;2.67;;;;;;;;;;5085608;28;20036;-64
2023/01/04 03:07:17;;;;;;;4.75;3.00;;;;;;;;;;5066349;28;20409;-64
2023/01/04 03:09:44;;;;;;;3.92;2.60;;;;;;;;;;5066199;28;20143;-64
2023/01/04 03:12:31;;;;;;;3.30;2.80;;;;;;;;;;5084406;28;20123;-64
2023/01/04 03:15:11;;;;;;;5.10;2.88;;;;;;;;;;5058191;28;20044;-65
2023/01/04 03:17:44;;;;;;;3.53;2.75;;;9.30;99.90;;;;;;5065948;28;20094;-64
2023/01/04 03:20:12;;;;;;;3.40;2.95;;;9.50;99.90;;;;;;5066405;28;20059;-64
2023/01/04 03:37:15;;;;;;;6.40;5.25;;;;;;;;;;5066981;28;20061;-64
2023/01/04 03:48:38;;;;;;;5.38;4.55;;;;;;;;;;5069943;28;20505;-64
2023/01/04 03:51:13;;;;;;;5.55;4.30;;;;;;;;;;5052446;28;20049;-64
2023/01/04 03:54:02;;;;;;;5.68;4.55;;;9.90;99.90;;;;;;5052295;28;20044;-63
2023/01/04 03:56:29;;;;;;;8.82;4.63;;;;;;;;;;5070605;28;20046;-64
2023/01/04 03:58:55;;;;;;;5.82;5.00;;;;;;;;;;5071113;28;20041;-64
2023/01/04 04:01:23;;;;;;;7.18;5.97;;;;;;;;;;5069938;28;20551;-64
2023/01/04 04:09:17;;;;;;;7.45;5.75;;;;;;;;;;5041064;28;20437;-64
2023/01/04 04:11:43;;;;;;;7.57;6.28;;;10.00;99.90;;;;;;5039507;28;20045;-64
2023/01/04 04:14:09;;;;;;;7.43;5.90;;;;;;;;;;5032981;28;20055;-64
2023/01/04 04:16:35;;;;;;;6.90;5.75;;;;;;;;;;5044245;28;20048;-65
2023/01/04 04:19:01;;;;;;;8.70;6.57;;;;;;;;;;5065113;28;20037;-64
2023/01/04 04:21:27;;;;;;;8.13;6.53;;;10.00;99.90;;;;;;5051095;28;20114;-65
2023/01/04 04:23:54;;;;;;;8.10;6.55;;;;;;;;;;5049587;28;20490;-63
2023/01/04 04:26:20;;;;;;;7.65;6.65;;;;;;;;;;5043848;28;20079;-65
2023/01/04 04:28:47;;;;;;;9.45;7.13;;;;;;;;;;5044335;28;20055;-64
2023/01/04 04:31:13;;;;;;;10.27;6.57;;;;;;;;;;5029604;28;20470;-64
2023/01/04 04:33:39;;;;;;;9.40;7.10;;;10.30;99.90;;;;;;5040388;28;20080;-64
2023/01/04 04:36:05;;;;;;;7.75;6.70;;;;;;;;;;5017097;28;20072;-65
2023/01/04 04:38:31;;;;;;;7.07;5.80;;;;;;;;;;5047602;28;20040;-64
2023/01/04 04:41:40;;;;;;;7.22;6.10;;;;;;;;;;5048624;28;20079;-64
2023/01/04 04:43:46;;;;;;;8.35;6.57;;;;;;;;;;5027667;28;20048;-64
2023/01/04 04:46:12;;;;;;;8.43;7.38;;;;;;;;;;5048734;28;20552;-65
2023/01/04 04:48:38;;;;;;;6.82;5.75;;;;;;;;;;5049140;28;20041;-64
2023/01/04 04:51:04;;;;;;;7.20;6.47;;;10.50;99.90;;;;;;5048367;28;20053;-64
2023/01/04 04:53:30;;;;;;;7.25;5.60;;;;;;;;;;5047202;28;20118;-64
2023/01/04 04:55:56;;;;;;;9.20;6.22;;;;;;;;;;5050482;28;20041;-64
2023/01/04 04:58:22;;;;;;;8.90;5.43;;;;;;;;;;5048101;28;20068;-63
2023/01/04 05:00:48;;;;;;;6.88;5.57;;;;;;;;;;5046999;28;20047;-64
2023/01/04 05:03:14;;;;;;;7.28;6.50;;;;;;;;;;5047557;28;20056;-63
2023/01/04 05:05:39;;;;;;;7.88;5.55;;;10.50;99.90;;;;;;5047753;28;20041;-64
2023/01/04 05:08:05;;;;;;;8.15;5.43;;;;;;;;;;5030066;28;20070;-64
2023/01/04 05:10:31;;;;;;;9.80;5.57;;;;;;;;;;5027960;28;20046;-63
2023/01/04 05:13:00;;;;;;;6.28;5.40;;;;;;;;;;5030153;28;20041;-64
2023/01/04 05:15:29;;;;;;;7.85;5.22;;;;;;;;;;5010990;28;20108;-63
2023/01/04 05:17:55;;;;;;;8.80;5.28;;;10.60;99.90;;;;;;5029712;28;20065;-63
2023/01/04 05:20:21;;;;;;;6.07;4.78;;;;;;;;;;5037814;28;20072;-63
2023/01/04 05:22:47;;;;;;;6.50;4.90;;;;;;;;;;5039897;28;20047;-64
2023/01/04 05:25:13;;;;;;;6.22;5.07;;;;;;;;;;5038777;28;20054;-64
2023/01/04 05:27:39;;;;;;;5.95;5.05;;;;;;;;;;5043220;28;20059;-63
2023/01/04 05:32:50;;;;;;;8.50;6.25;;;;;;;;;;5059311;28;20460;-63
2023/01/04 05:35:16;;;;;;;8.02;5.93;;;;;;;;;;5038457;28;20037;-63
2023/01/04 05:37:42;;;;;;;7.18;5.38;;;;;;;;;;5033614;28;20049;-63
2023/01/04 05:40:09;;;;;;;7.88;5.32;;;;;;;;;;5036012;28;20050;-64
2023/01/04 05:42:35;;;;;;;9.02;5.47;;;;;;;;;;5050647;28;20102;-63
2023/01/04 05:45:01;;;;;;;5.53;4.90;;;;;;;;;;5051124;28;20036;-64
2023/01/04 05:47:28;;;;;;;6.43;5.30;;;;;;;;;;5079203;28;20538;-63
2023/01/04 05:49:54;;;;;;;7.47;5.07;;;;;;;;;;5049885;28;20127;-63
2023/01/04 05:52:20;;;;;;;8.95;5.10;;;;;;;;;;5049802;28;20124;-63
2023/01/04 05:54:46;;;;;;;8.40;5.15;;;;;;;;;;5049988;28;20124;-65
2023/01/04 05:57:12;;;;;;;8.38;5.80;;;;;;;;;;5051645;28;20444;-63
2023/01/04 05:59:38;;;;;;;8.20;5.30;;;;;;;;;;5077017;28;20466;-64
2023/01/04 06:02:06;;;;;;;8.60;5.68;;;10.80;99.90;;;;;;5068459;28;20063;-64
2023/01/04 06:04:32;;;;;;;9.82;6.43;;;;;;;;;;5040682;28;20187;-64
2023/01/04 06:06:58;;;;;;;9.38;7.15;;;;;;;;;;5064976;28;20124;-63
2023/01/04 06:09:26;;;;;;;12.52;7.28;;;;;;;;;;5072223;28;20031;-66
2023/01/04 06:11:51;;;;;;;10.70;6.45;;;10.70;99.90;;;;;;5054498;28;20040;-64
2023/01/04 06:14:17;;;;;;;9.82;7.45;;;;;;;;;;5048042;28;20055;-65
2023/01/04 06:16:43;;;;;;;8.25;5.95;;;;;;;;;;5035340;28;20052;-66
2023/01/04 06:19:09;;;;;;;7.43;5.82;;;;;;;;;;5042638;28;20044;-65
2023/01/04 06:21:35;;;;;;;8.65;5.85;;;;;;;;;;5033186;28;20059;-67
2023/01/04 06:24:01;;;;;;;7.18;5.72;;;;;;;;;;5046729;28;20083;-68
2023/01/04 06:26:27;;;;;;;6.60;5.03;;;;;;;;;;5051069;28;20407;-65
2023/01/04 06:28:53;;;;;;;8.65;4.90;;;;;;;;;;5041299;28;20395;-65
2023/01/04 06:31:19;;;;;;;6.50;4.97;;;;;;;;;;5059102;28;20402;-63
2023/01/04 06:33:45;;;;;;;9.38;4.88;;;;;;;;;;5041722;28;20041;-66
2023/01/04 06:36:11;;;;;;;5.57;4.60;;;;;;;;;;5048688;28;20033;-63
2023/01/04 06:38:37;;;;;;;6.93;4.32;;;;;;;;;;5061049;28;20090;-64
2023/01/04 06:41:06;;;;;;;6.13;4.22;;;10.80;99.90;;;;;;5057090;28;20048;-70
2023/01/04 06:43:32;;;;;;;6.88;4.25;;;;;;;;;;5052690;28;20040;-71
2023/01/04 06:46:00;;;;;;;5.72;4.38;;;;;;;;;;5054030;28;20048;-66
2023/01/04 06:48:26;;;;;;;8.32;4.40;;;;;;;;;;5067575;28;20052;-65
2023/01/04 06:50:52;;;;;;;4.70;4.13;;;;;;;;;;5046982;28;20044;-65
2023/01/04 06:53:18;;;;;;;4.25;3.38;;;;;;;;;;5069664;28;20037;-68
2023/01/04 06:55:44;;;;;;;4.15;3.63;;;;;;;;;;5053584;28;20444;-65
2023/01/04 06:58:10;;;;;;;6.88;3.60;;;;;;;;;;5079419;28;20085;-66
2023/01/04 07:00:36;;;;;;;4.63;3.50;;;;;;;;;;5051422;28;20459;-64
2023/01/04 07:03:02;;;;;;;4.15;3.13;;;11.00;99.90;;;;;;5050897;28;20548;-64
2023/01/04 07:05:28;;;;;;;4.97;3.72;;;11.10;99.90;;;;;;5055142;28;20044;-64
2023/01/04 07:07:54;;;;;;;6.97;2.70;;;;;;;;;;5069530;28;20063;-64
2023/01/04 07:10:20;;;;;;;3.38;2.65;;;;;;;;;;5045710;28;20052;-66
2023/01/04 07:12:46;;;;;;;2.92;2.63;;;;;;;;;;5051233;28;20039;-63
2023/01/04 07:15:12;;;;;;;3.00;2.40;;;;;;;;;;5068084;28;20143;-63
2023/01/04 07:17:37;;;;;;;3.22;2.60;;;11.00;99.90;;;;;;5078740;28;20037;-63
2023/01/04 07:20:03;;;;;;;3.58;2.33;;;11.10;99.90;;;;;;5069718;28;20403;-63
2023/01/04 07:22:29;;;;;;;3.53;2.95;;;;;;;;;;5049629;28;20080;-66
2023/01/04 07:24:55;;;;;;;4.55;2.80;;;;;;;;;;5036342;28;20045;-66
2023/01/04 07:27:21;;;;;;;3.97;2.78;;;;;;;;;;5061222;28;20040;-66
2023/01/04 07:29:47;;;;;;;3.97;3.00;;;;;;;;;;5043174;28;20036;-67
2023/01/04 07:32:13;;;;;;;4.53;2.55;;;11.00;99.90;;;;;;5038582;28;20491;-68
2023/01/04 07:34:38;;;;;;;3.65;2.30;;;11.10;99.90;;;;;;5062578;28;20036;-68
2023/01/04 07:37:08;;;;;;;5.13;2.75;;;;;;;;;;5063471;28;20038;-68
2023/01/04 07:39:33;;;;;;;3.58;3.22;;;11.10;99.90;;;;;;5067130;28;20044;-67
2023/01/04 07:41:59;;;;;;;3.78;2.90;;;11.10;99.90;;;;;;5077920;28;20348;-67
2023/01/04 07:44:26;;;;;;;3.55;2.83;;;;;;;;;;5073596;28;20048;-69
2023/01/04 07:46:53;;;;;;;4.95;3.75;;;11.10;99.90;;;;;;5078492;28;20048;-67
2023/01/04 07:49:18;;;;;;;3.95;2.90;;;11.20;99.90;;;;;;5070972;28;20028;-67
2023/01/04 07:51:45;;;;;;;3.92;2.70;;;;;;;;;;5049041;28;20053;-64
2023/01/04 07:54:11;;;;;;;5.00;3.33;;;;;;;;;;5067004;28;20032;-66
2023/01/04 07:56:37;;;;;;;5.95;3.22;;;;;;;;;;5069994;28;20127;-65
2023/01/04 07:59:07;;;;;;;4.15;3.38;;;;;;;;;;5072853;28;20048;-68
2023/01/04 08:01:34;;;;;;;4.07;3.28;;;;;;;;;;5053033;28;20417;-64
2023/01/04 08:04:00;;;;;;;5.60;4.07;;;;;;;;;;5059536;28;20071;-65
2023/01/04 08:06:26;;;;;;;4.65;4.00;;;;;;;;;;5057054;28;20040;-66
2023/01/04 08:08:52;;;;;;;7.40;3.83;;;;;;;;;;5043797;28;20044;-67
2023/01/04 08:11:21;;;;;;;7.75;4.22;;;;;;;;;;5062884;28;20037;-65
2023/01/04 08:13:47;;;;;;;7.60;4.22;;;;;;;;;;5066237;28;20072;-66
2023/01/04 08:16:21;;;;;;;7.10;4.20;;;;;;;;;;5068170;28;20051;-66
2023/01/04 08:18:47;;;;;;;8.50;4.55;;;;;;;;;;5046461;28;20036;-65
2023/01/04 08:21:14;;;;;;;5.72;4.50;;;;;;;;;;5066488;28;20036;-67
2023/01/04 08:23:39;;;;;;;7.40;4.32;;;11.10;99.90;;;;;;5065415;28;20035;-68
2023/01/04 08:26:06;;;;;;;8.60;4.78;;;;;;;;;;5068339;28;20040;-65
2023/01/04 08:28:33;;;;;;;9.13;4.60;;;11.30;99.90;;;;;;5068679;28;20879;-64
2023/01/04 08:31:02;;;;;;;6.75;4.05;;;11.10;99.90;;;;;;5058735;28;20526;-66
2023/01/04 08:33:28;;;;;;;4.18;3.75;;;11.20;99.90;;;;;;5067553;28;20044;-64
2023/01/04 08:35:54;;;;;;;4.20;3.80;;;11.20;99.90;;;;;;5064532;28;20113;-66
2023/01/04 08:38:20;;;;;;;6.80;3.72;;;;;;;;;;5047634;28;20087;-64
2023/01/04 08:40:45;;;;;;;4.50;3.20;;;11.20;99.90;;;;;;5075488;28;20500;-63
2023/01/04 08:43:11;;;;;;;5.10;3.33;;;;;;;;;;5070510;28;20044;-68
2023/01/04 08:45:37;;;;;;;4.22;3.08;;;;;;;;;;5070086;28;20041;-67
2023/01/04 08:48:03;;;;;;;3.75;3.20;;;;;;;;;;5067327;28;20052;-66
2023/01/04 08:50:29;;;;;;;3.47;2.85;;;11.20;99.90;;;;;;5068642;28;20064;-66
2023/01/04 08:52:54;;;;;;;5.65;3.10;;;11.20;99.90;;;;;;5068815;28;20087;-65
2023/01/04 08:55:20;;;;;;;2.83;2.08;;;;;;;;;;5066731;28;20055;-65
2023/01/04 08:57:46;;;;;;;3.35;2.60;;;11.20;99.90;;;;;;5076304;28;20032;-65
2023/01/04 09:00:12;;;;;;;4.30;3.00;;;;;;;;;;5041011;28;20097;-66
2023/01/04 09:02:38;;;;;;;3.03;2.58;;;;;;;;;;5048296;28;20044;-65
2023/01/04 09:05:04;;;;;;;2.95;2.65;;;11.30;99.90;;;;;;5031639;28;20474;-66
2023/01/04 09:07:31;;;;;;;3.40;2.50;;;11.30;99.90;;;;;;5045480;28;20037;-66
2023/01/04 09:09:59;;;;;;;2.53;1.90;;;;;;;;;;5066078;28;20032;-69
2023/01/04 09:12:24;;;;;;;2.60;1.90;;;11.30;99.90;;;;;;5063537;28;20063;-64
2023/01/04 09:14:50;;;;;;;3.20;2.30;;;11.30;99.90;;;;;;5063507;28;20478;-64
2023/01/04 09:17:15;;;;;;;3.03;1.98;;;11.40;99.90;;;;;;5047962;28;20118;-66
2023/01/04 09:19:41;;;;;;;1.75;1.40;;;11.40;99.90;;;;;;5048308;28;20148;-66
2023/01/04 09:22:06;;;;;;;2.85;1.42;;;11.40;99.90;;;;;;5047734;28;20473;-66
2023/01/04 09:24:33;;;;;;;1.80;1.38;;;;;;;;;;5070676;28;20032;-65
2023/01/04 09:26:59;;;;;;;2.35;1.60;;;;;;;;;;5041332;28;20056;-65
2023/01/04 09:29:26;;;;;;;1.70;1.48;;;11.50;99.90;;;;;;5067245;28;20044;-67
2023/01/04 09:31:52;;;;;;;2.08;1.67;;;11.50;99.90;;;;;;5070361;28;20119;-67
2023/01/04 09:34:18;;;;;;;3.03;1.40;;;;;;;;;;5045811;28;20041;-65
2023/01/04 09:36:48;;;;;;;4.50;1.80;;;11.70;99.90;;;;;;5049139;28;20363;-63
2023/01/04 09:39:14;;;;;;;5.22;1.75;;;;;;;;;;5036086;28;20045;-64
2023/01/04 09:41:55;;;;;;;5.75;2.10;;;;;;;;;;5066178;28;20118;-65
2023/01/04 09:44:31;;;;;;;4.95;1.98;;;11.60;99.90;;;;;;5070065;28;20040;-65
2023/01/04 09:47:16;;;;;;;7.85;2.75;;;11.40;99.90;;;;;;5049292;28;20516;-63
2023/01/04 09:49:48;;;;;;;4.60;1.90;;;;;;;;;;5045053;28;20154;-66
2023/01/04 09:52:19;;;;;;;3.83;2.22;;;;;;;;;;5063203;28;20055;-63
2023/01/04 09:54:48;;;;;;;7.78;2.28;;;;;;;;;;5048105;28;20052;-67
2023/01/04 09:57:29;;;;;;;10.90;2.67;;;;;;;;;;5047833;28;20036;-65
2023/01/04 09:59:58;;;;;;;12.25;2.25;;;;;;;;;;5047008;28;20043;-67
2023/01/04 10:02:28;;;;;;;8.93;2.75;;;;;;;;;;5071738;28;20529;-65
2023/01/04 10:04:57;;;;;;;13.32;3.40;;;11.60;99.90;;;;;;5065536;28;20040;-67
2023/01/04 10:07:26;;;;;;;7.38;2.45;;;;;;;;;;5064604;28;20044;-66
2023/01/04 10:09:52;;;;;;;7.50;2.22;;;11.80;99.90;;;;;;5070587;28;20563;-67
2023/01/04 10:12:18;;;;;;;10.73;4.15;;;;;;;;;;5066615;28;20137;-64
2023/01/04 10:15:04;;;;;;;10.15;2.83;;;11.70;99.90;;;;;;5062489;28;20045;-65
2023/01/04 10:17:38;;;;;;;16.90;3.15;;;11.70;99.90;;;;;;5021919;28;20044;-65
2023/01/04 10:20:23;;;;;;;17.38;3.60;;;;;;;;;;5043082;28;20048;-66
2023/01/04 10:22:54;;;;;;;14.07;3.25;;;;;;;;;;5037039;28;20098;-67
2023/01/04 10:25:24;;;;;;;19.70;3.80;;;;;;;;;;5039479;28;20036;-67
2023/01/04 10:27:50;;;;;;;13.48;3.17;;;;;;;;;;5063316;28;20450;-67
2023/01/04 10:30:16;;;;;;;18.73;3.20;;;;;;;;;;5046626;28;20048;-66
2023/01/04 10:32:43;;;;;;;18.08;3.75;;;11.90;99.90;;;;;;5052026;28;20044;-66
2023/01/04 10:35:22;;;;;;;15.57;3.83;;;11.90;99.90;;;;;;5036461;28;20049;-67
2023/01/04 10:37:55;;;;;;;20.27;3.85;;;12.00;99.90;;;;;;5044688;28;20431;-67
2023/01/04 10:40:22;;;;;;;22.17;4.82;;;;;;;;;;5038219;28;20048;-67
2023/01/04 10:42:52;;;;;;;21.35;4.70;;;;;;;;;;5071940;28;20124;-67
2023/01/04 10:45:21;;;;;;;27.40;4.65;;;;;;;;;;5050343;28;20098;-68
2023/01/04 10:47:58;;;;;;;18.85;3.78;;;12.20;99.90;;;;;;5074217;28;20491;-69
2023/01/04 10:50:59;;;;;;;24.63;4.72;;;12.10;99.90;;;;;;5053694;28;20387;-69
2023/01/04 10:53:45;;;;;;;27.80;4.82;;;12.00;99.90;;;;;;5078950;28;20083;-67
2023/01/04 10:56:23;;;;;;;27.25;4.55;;;12.10;99.90;;;;;;5055421;28;20047;-67
2023/01/04 10:58:49;;;;;;;31.77;5.05;;;;;;;;;;5049803;28;20043;-67
2023/01/04 11:01:23;;;;;;;29.50;4.18;;;12.00;99.90;;;;;;5047266;28;20447;-66
2023/01/04 11:03:52;;;;;;;22.42;5.13;;;;;;;;;;5041987;28;20049;-69
2023/01/04 11:06:26;;;;;;;21.90;4.07;;;12.10;99.90;;;;;;5064003;28;20052;-69
2023/01/04 11:08:52;;;;;;;30.98;5.25;;;;;;;;;;5072274;28;20044;-68
2023/01/04 11:11:25;;;;;;;22.48;4.03;;;12.10;99.90;;;;;;5065896;28;20040;-68
2023/01/04 11:13:52;;;;;;;20.63;4.43;;;12.00;99.90;;;;;;5057272;28;20049;-67
2023/01/04 11:16:18;;;;;;;24.65;4.32;;;12.00;99.90;;;;;;5038851;28;20407;-68
2023/01/04 11:18:45;;;;;;;25.77;4.65;;;12.10;99.90;;;;;;5034475;28;20041;-67
2023/01/04 11:21:13;;;;;;;20.15;3.70;;;;;;;;;;5048129;28;20041;-67
2023/01/04 11:23:38;;;;;;;23.48;4.40;;;12.10;99.90;;;;;;5045617;28;20045;-68
2023/01/04 11:26:14;;;;;;;22.30;3.97;;;12.00;99.90;;;;;;5041780;28;20229;-68
2023/01/04 11:28:48;;;;;;;18.73;3.80;;;11.90;99.90;;;;;;5035444;28;20079;-68
2023/01/04 11:31:39;;;;;;;25.02;3.85;;;12.20;99.90;;;;;;5056001;28;20435;-69
2023/01/04 11:34:05;;;;;;;17.30;4.45;;;;;;;;;;5035551;28;20045;-69
2023/01/04 11:36:36;;;;;;;21.38;3.42;;;;;;;;;;5034422;28;20067;-69
2023/01/04 11:39:05;;;;;;;24.13;4.72;;;12.10;99.90;;;;;;5034906;28;20045;-69
2023/01/04 11:41:31;;;;;;;28.40;4.68;;;;;;;;;;5048832;28;20040;-70
2023/01/04 11:44:05;;;;;;;22.27;4.00;;;12.20;99.90;;;;;;5040030;28;20052;-69
2023/01/04 11:46:32;;;;;;;22.30;3.92;;;12.20;99.90;;;;;;5069524;28;20421;-69
2023/01/04 11:48:58;;;;;;;24.60;3.90;;;;;;;;;;5045302;28;20554;-68
2023/01/04 11:51:33;;;;;;;11.80;5.03;;;12.10;99.90;;;;;;5045169;28;20403;-68
2023/01/04 11:54:14;;;;;;;17.38;3.42;;;12.10;99.90;;;;;;5051261;28;20051;-68
2023/01/04 11:56:56;;;;;;;14.02;3.58;;;;;;;;;;5051582;28;20471;-69
2023/01/04 11:59:22;;;;;;;23.17;3.72;;;;;;;;;;5051390;28;20457;-68
2023/01/04 12:01:50;;;;;;;15.32;2.70;;;12.30;99.90;;;;;;5051292;28;20131;-69
2023/01/04 12:04:16;;;;;;;13.95;2.55;;;;;;;;;;5049541;28;20063;-68
2023/01/04 12:06:46;;;;;;;11.07;2.47;;;;;;;;;;5069340;28;20044;-68
2023/01/04 12:09:14;;;;;;;9.23;2.35;;;13.20;99.90;;;;;;5051560;28;20643;-69
2023/01/04 12:11:42;;;;;;;10.27;2.72;;;;;;;;;;5069196;28;20431;-69
2023/01/04 12:14:23;;;;;;;8.57;2.60;;;;;;;;;;5068975;28;20072;-68
2023/01/04 12:17:12;;;;;;;8.88;3.05;;;12.30;99.90;;;;;;5068893;28;20830;-69
2023/01/04 12:19:40;;;;;;;8.35;1.60;;;12.20;99.90;;;;;;5050961;28;20041;-68
2023/01/04 12:22:23;;;;;;;8.95;1.65;;;12.30;99.90;;;;;;5054600;28;20402;-69
2023/01/04 12:24:49;;;;;;;5.13;1.67;;;12.10;99.90;;;;;;5068863;28;20502;-69
2023/01/04 12:27:16;;;;;;;7.43;1.65;;;12.20;99.90;;;;;;5050897;28;20045;-69
2023/01/04 12:29:51;;;;;;;5.95;1.92;;;12.30;99.90;;;;;;5050893;28;20457;-68
2023/01/04 12:32:16;;;;;;;5.47;1.52;;;12.20;99.90;;;;;;5050563;28;20495;-69
2023/01/04 12:34:46;;;;;;;5.22;1.40;;;12.20;99.90;;;;;;5050894;28;20363;-68
2023/01/04 12:37:35;;;;;;;7.25;1.83;;;12.10;99.90;;;;;;5068861;28;20351;-69
2023/01/04 12:40:01;;;;;;;9.63;1.73;;;;;;;;;;5035259;28;20055;-68
2023/01/04 12:42:27;;;;;;;6.38;1.98;;;;;;;;;;5050681;28;20048;-69
2023/01/04 12:44:53;;;;;;;6.45;2.00;;;;;;;;;;5068318;28;20506;-68
2023/01/04 12:50:10;;;;;;;12.70;2.00;;;12.30;99.90;;;;;;5050167;28;20056;-68
2023/01/04 12:52:45;;;;;;;11.88;2.20;;;12.00;99.90;;;;;;5050296;28;20550;-69
2023/01/04 12:55:25;;;;;;;8.82;2.42;;;12.20;99.90;;;;;;5068132;28;20036;-69
2023/01/04 12:57:51;;;;;;;14.80;2.25;;;;;;;;;;5068067;28;20048;-68
2023/01/04 13:00:17;;;;;;;17.00;2.65;;;;;;;;;;5068164;28;20047;-68
2023/01/04 13:03:07;;;;;;;14.43;3.53;;;12.30;99.90;;;;;;5067983;28;20461;-69
2023/01/04 13:05:36;;;;;;;10.98;3.47;;;12.10;99.90;;;;;;5067469;28;20049;-69
2023/01/04 13:08:02;;;;;;;21.65;3.08;;;;;;;;;;5068028;28;20044;-69
2023/01/04 13:10:41;;;;;;;17.35;3.60;;;12.10;99.90;;;;;;5049349;28;20052;-69
2023/01/04 13:13:37;;;;;;;17.48;4.10;;;12.10;99.90;;;;;;5049842;28;20055;-69
2023/01/04 13:16:21;;;;;;;21.90;3.72;;;;;;;;;;5066419;28;20037;-69
2023/01/04 13:18:49;;;;;;;16.63;3.67;;;;;;;;;;5067513;28;20043;-69
2023/01/04 13:21:15;;;;;;;16.05;3.08;;;;;;;;;;5067770;28;20067;-69
2023/01/04 13:23:51;;;;;;;14.82;3.10;;;12.30;99.90;;;;;;5049317;28;20048;-69
2023/01/04 13:26:35;;;;;;;15.27;3.55;;;12.20;99.90;;;;;;5067490;28;20072;-69
2023/01/04 13:29:05;;;;;;;11.67;2.87;;;;;;;;;;5049154;28;20051;-69
2023/01/04 13:31:31;;;;;;;15.88;3.65;;;;;;;;;;5067017;28;20418;-69
2023/01/04 13:33:57;;;;;;;21.48;3.50;;;;;;;;;;5049315;28;20388;-69
2023/01/04 13:36:23;;;;;;;18.30;4.72;;;;;;;;;;5049560;28;20572;-69
2023/01/04 13:38:49;;;;;;;23.05;3.67;;;12.00;99.90;;;;;;5067249;28;20056;-68
2023/01/04 13:41:22;;;;;;;16.95;3.28;;;;;;;;;;5066989;28;20147;-69
2023/01/04 13:44:10;;;;;;;24.17;3.88;;;12.20;99.90;;;;;;5049225;28;20506;-69
2023/01/04 13:46:36;;;;;;;19.73;3.78;;;;;;;;;;5049052;28;20060;-69
2023/01/04 13:49:02;;;;;;;17.52;3.97;;;;;;;;;;5049172;28;20402;-69
2023/01/04 13:51:36;;;;;;;23.50;4.32;;;;;;;;;;5048601;28;20052;-69
2023/01/04 13:54:04;;;;;;;23.33;3.63;;;12.00;99.90;;;;;;5049161;28;20059;-69
2023/01/04 13:56:32;;;;;;;21.73;3.55;;;12.20;99.90;;;;;;5066835;28;20133;-69
2023/01/04 13:58:59;;;;;;;19.38;4.10;;;;;;;;;;5066214;28;20041;-69
2023/01/04 14:01:32;;;;;;;20.38;3.72;;;;;;;;;;5048874;28;20044;-68
2023/01/04 14:04:12;;;;;;;18.15;3.83;;;12.10;99.90;;;;;;5048617;28;20055;-68
2023/01/04 14:06:43;;;;;;;30.15;5.30;;;12.00;99.90;;;;;;5048494;28;20059;-68
2023/01/04 14:09:09;;;;;;;19.88;4.03;;;;;;;;;;5066870;28;20048;-69
2023/01/04 14:14:40;;;;;;;26.30;4.03;;;12.20;99.90;;;;;;5035754;28;20044;-69
2023/01/04 14:17:09;;;;;;;18.17;3.85;;;12.10;99.90;;;;;;5066655;28;20044;-69
2023/01/04 14:19:41;;;;;;;19.42;3.88;;;12.00;99.90;;;;;;5066523;28;20045;-69
2023/01/04 14:22:25;;;;;;;23.42;4.38;;;12.10;99.90;;;;;;5066455;28;20498;-69
2023/01/04 14:24:54;;;;;;;20.00;3.88;;;12.10;99.90;;;;;;5067004;28;20047;-69
2023/01/04 14:27:33;;;;;;;27.25;3.85;;;;;;;;;;5066561;28;20041;-69
2023/01/04 14:30:00;;;;;;;23.77;3.70;;;12.10;99.90;;;;;;5066449;28;20048;-69
2023/01/04 14:32:26;;;;;;;19.17;3.95;;;11.90;99.90;;;;;;5066750;28;20143;-69
2023/01/04 14:34:53;;;;;;;19.98;4.03;;;12.10;99.90;;;;;;5066671;28;20159;-69
2023/01/04 14:37:18;;;;;;;29.90;5.25;;;;;;;;;;5048637;28;20510;-69
2023/01/04 14:39:44;;;;;;;22.88;4.60;;;12.10;99.90;;;;;;5048471;28;20040;-69
2023/01/04 14:42:24;;;;;;;28.25;4.55;;;12.10;99.90;;;;;;5067098;28;20452;-69
2023/01/04 14:44:50;;;;;;;15.30;3.10;;;;;;;;;;5067147;28;20072;-69
2023/01/04 14:47:16;;;;;;;17.50;3.50;;;12.10;99.90;;;;;;5048753;28;20080;-69
2023/01/04 14:49:42;;;;;;;20.92;3.83;;;;;;;;;;5048721;28;20570;-69
2023/01/04 14:52:19;;;;;;;15.20;3.63;;;12.20;99.90;;;;;;5044454;28;20576;-69
2023/01/04 14:54:45;;;;;;;21.75;3.83;;;;;;;;;;5042918;28;20045;-67
2023/01/04 14:57:11;;;;;;;15.85;3.90;;;12.20;99.90;;;;;;5061083;28;20044;-67